This is the latest recevied weather packets stored in our database for station/object FHDOHA-13. If no packets are shown the sender has not sent any weather packets the latest 10 day(s).
| Time | Temp. | Humidity | Pressure | Rain* | Wind** | Luminosity | Snow |
|---|---|---|---|---|---|---|---|
| 1777540574 | 12.22° C | 31% | 1032.4 hPa | 0 mm | - | - | - |
| 1777539672 | 11.67° C | 31% | 1032.4 hPa | 0 mm | - | - | - |
| 1777538772 | 11.11° C | 31% | 1032.5 hPa | 0 mm | - | - | - |
| 1777537872 | 11.11° C | 31% | 1032.5 hPa | 0 mm | - | - | - |
| 1777536972 | 10.56° C | 31% | 1032.6 hPa | 0 mm | - | - | - |
| 1777536072 | 10.56° C | 32% | 1032.6 hPa | 0 mm | - | - | - |
| 1777535172 | 10° C | 32% | 1032.6 hPa | 0 mm | - | - | - |
| 1777534272 | 10° C | 34% | 1032.6 hPa | 0 mm | - | - | - |
| 1777533372 | 9.44° C | 36% | 1032.7 hPa | 0 mm | - | - | - |
| 1777532472 | 10° C | 33% | 1032.6 hPa | 0 mm | - | - | - |
| 1777531572 | 16.67° C | 28% | 1031.9 hPa | 0 mm | - | - | - |
| 1777530672 | 16.11° C | 35% | 1032 hPa | 0 mm | - | - | - |
| 1777529772 | 15° C | 39% | 1032.1 hPa | 0 mm | - | - | - |
| 1777528872 | 13.33° C | 49% | 1032.3 hPa | 0 mm | - | - | - |
| 1777527972 | 2.78° C | 62% | 1032.4 hPa | 0 mm | - | - | - |
| 1777527073 | 2.78° C | 62% | 1032.4 hPa | 0 mm | - | - | - |
| 1777526173 | 2.22° C | 63% | 1032.4 hPa | 0 mm | - | - | - |
| 1777525273 | 2.22° C | 62% | 1032.5 hPa | 0 mm | - | - | - |
| 1777524373 | 1.67° C | 62% | 1032.5 hPa | 0 mm | - | - | - |
| 1777523472 | 1.67° C | 63% | 1032.5 hPa | 0 mm | - | - | - |
| 1777522572 | 1.67° C | 63% | 1032.5 hPa | 0 mm | - | - | - |
| 1777521673 | 1.67° C | 63% | 1032.5 hPa | 0 mm | - | - | - |
| 1777520772 | 2.22° C | 63% | 1032.5 hPa | 0 mm | - | - | - |
| 1777519872 | 2.22° C | 62% | 1032.5 hPa | 0 mm | - | - | - |
| 1777518972 | 2.22° C | 62% | 1032.5 hPa | 0 mm | - | - | - |
* Rain latest hour (hover to see other rain measurements)
** Current wind speed in m/s (hover to see current wind gust speed)